sensor_id;sensor_type;location;lat;lon;timestamp;P1;durP1;ratioP1;P2;durP2;ratioP2
11665;SDS011;5889;51.350;6.708;2023-01-28T00:01:09;13.33;;;9.73;;
11665;SDS011;5889;51.350;6.708;2023-01-28T00:03:37;13.43;;;9.50;;
11665;SDS011;5889;51.350;6.708;2023-01-28T00:06:05;12.53;;;8.83;;
11665;SDS011;5889;51.350;6.708;2023-01-28T00:08:33;12.03;;;9.03;;
11665;SDS011;5889;51.350;6.708;2023-01-28T00:11:01;12.93;;;8.73;;
11665;SDS011;5889;51.350;6.708;2023-01-28T00:13:31;11.63;;;9.23;;
11665;SDS011;5889;51.350;6.708;2023-01-28T00:16:00;12.97;;;9.87;;
11665;SDS011;5889;51.350;6.708;2023-01-28T00:18:29;13.23;;;10.87;;
11665;SDS011;5889;51.350;6.708;2023-01-28T00:20:57;14.70;;;10.40;;
11665;SDS011;5889;51.350;6.708;2023-01-28T00:23:24;12.80;;;10.00;;
11665;SDS011;5889;51.350;6.708;2023-01-28T00:25:51;15.50;;;9.87;;
11665;SDS011;5889;51.350;6.708;2023-01-28T00:28:19;13.77;;;10.47;;
11665;SDS011;5889;51.350;6.708;2023-01-28T00:30:47;16.00;;;10.63;;
11665;SDS011;5889;51.350;6.708;2023-01-28T00:33:14;14.30;;;9.73;;
11665;SDS011;5889;51.350;6.708;2023-01-28T00:35:41;15.60;;;10.80;;
11665;SDS011;5889;51.350;6.708;2023-01-28T00:38:08;14.87;;;10.07;;
11665;SDS011;5889;51.350;6.708;2023-01-28T00:40:36;15.43;;;10.40;;
11665;SDS011;5889;51.350;6.708;2023-01-28T00:43:03;17.83;;;11.70;;
11665;SDS011;5889;51.350;6.708;2023-01-28T00:45:30;15.27;;;10.93;;
11665;SDS011;5889;51.350;6.708;2023-01-28T00:47:58;16.90;;;11.40;;
11665;SDS011;5889;51.350;6.708;2023-01-28T00:50:25;16.40;;;11.23;;
11665;SDS011;5889;51.350;6.708;2023-01-28T00:52:52;18.30;;;11.37;;
11665;SDS011;5889;51.350;6.708;2023-01-28T00:55:19;17.50;;;11.97;;
11665;SDS011;5889;51.350;6.708;2023-01-28T00:57:46;17.97;;;11.37;;
11665;SDS011;5889;51.350;6.708;2023-01-28T01:00:14;19.23;;;13.13;;
11665;SDS011;5889;51.350;6.708;2023-01-28T01:02:44;18.40;;;12.33;;
11665;SDS011;5889;51.350;6.708;2023-01-28T01:05:12;17.90;;;12.20;;
11665;SDS011;5889;51.350;6.708;2023-01-28T01:07:39;17.10;;;10.83;;
11665;SDS011;5889;51.350;6.708;2023-01-28T01:10:09;17.37;;;11.03;;
11665;SDS011;5889;51.350;6.708;2023-01-28T01:12:38;20.40;;;12.23;;
11665;SDS011;5889;51.350;6.708;2023-01-28T01:15:06;17.27;;;11.53;;
11665;SDS011;5889;51.350;6.708;2023-01-28T01:17:34;15.90;;;11.27;;
11665;SDS011;5889;51.350;6.708;2023-01-28T01:20:02;14.97;;;10.53;;
11665;SDS011;5889;51.350;6.708;2023-01-28T01:22:32;16.10;;;11.20;;
11665;SDS011;5889;51.350;6.708;2023-01-28T01:25:00;15.17;;;11.37;;
11665;SDS011;5889;51.350;6.708;2023-01-28T01:27:28;13.90;;;10.67;;
11665;SDS011;5889;51.350;6.708;2023-01-28T01:29:55;16.37;;;11.50;;
11665;SDS011;5889;51.350;6.708;2023-01-28T01:32:23;16.60;;;11.20;;
11665;SDS011;5889;51.350;6.708;2023-01-28T01:34:50;17.13;;;11.87;;
11665;SDS011;5889;51.350;6.708;2023-01-28T01:37:17;14.87;;;10.80;;
11665;SDS011;5889;51.350;6.708;2023-01-28T01:39:45;16.70;;;11.20;;
11665;SDS011;5889;51.350;6.708;2023-01-28T01:42:13;15.87;;;11.73;;
11665;SDS011;5889;51.350;6.708;2023-01-28T01:44:56;15.93;;;11.40;;
11665;SDS011;5889;51.350;6.708;2023-01-28T01:47:27;16.87;;;12.50;;
11665;SDS011;5889;51.350;6.708;2023-01-28T01:50:03;18.33;;;12.27;;
11665;SDS011;5889;51.350;6.708;2023-01-28T01:52:34;27.53;;;16.17;;
11665;SDS011;5889;51.350;6.708;2023-01-28T01:55:05;26.23;;;15.10;;
11665;SDS011;5889;51.350;6.708;2023-01-28T01:57:36;22.20;;;14.30;;
11665;SDS011;5889;51.350;6.708;2023-01-28T02:00:05;17.50;;;12.57;;
11665;SDS011;5889;51.350;6.708;2023-01-28T02:02:34;17.47;;;11.77;;
11665;SDS011;5889;51.350;6.708;2023-01-28T02:05:05;17.43;;;11.97;;
11665;SDS011;5889;51.350;6.708;2023-01-28T02:07:33;17.77;;;12.13;;
11665;SDS011;5889;51.350;6.708;2023-01-28T02:10:01;19.47;;;12.23;;
11665;SDS011;5889;51.350;6.708;2023-01-28T02:12:31;15.83;;;11.37;;
11665;SDS011;5889;51.350;6.708;2023-01-28T02:15:01;18.63;;;12.40;;
11665;SDS011;5889;51.350;6.708;2023-01-28T02:17:31;17.63;;;12.03;;
11665;SDS011;5889;51.350;6.708;2023-01-28T02:19:59;17.03;;;13.03;;
11665;SDS011;5889;51.350;6.708;2023-01-28T02:25:28;19.23;;;10.10;;
11665;SDS011;5889;51.350;6.708;2023-01-28T02:28:28;11.63;;;7.73;;
11665;SDS011;5889;51.350;6.708;2023-01-28T02:31:00;12.30;;;8.13;;
11665;SDS011;5889;51.350;6.708;2023-01-28T02:33:34;14.73;;;9.03;;
11665;SDS011;5889;51.350;6.708;2023-01-28T02:36:08;22.90;;;12.70;;
11665;SDS011;5889;51.350;6.708;2023-01-28T02:38:44;32.50;;;14.87;;
11665;SDS011;5889;51.350;6.708;2023-01-28T02:41:16;41.90;;;18.50;;
11665;SDS011;5889;51.350;6.708;2023-01-28T02:43:48;19.43;;;11.30;;
11665;SDS011;5889;51.350;6.708;2023-01-28T02:46:17;21.40;;;10.93;;
11665;SDS011;5889;51.350;6.708;2023-01-28T02:49:06;27.20;;;11.90;;
11665;SDS011;5889;51.350;6.708;2023-01-28T02:51:43;21.67;;;11.43;;
11665;SDS011;5889;51.350;6.708;2023-01-28T02:54:22;18.73;;;10.50;;
11665;SDS011;5889;51.350;6.708;2023-01-28T02:56:59;15.80;;;9.77;;
11665;SDS011;5889;51.350;6.708;2023-01-28T02:59:39;18.10;;;11.10;;
11665;SDS011;5889;51.350;6.708;2023-01-28T03:02:15;15.60;;;9.57;;
11665;SDS011;5889;51.350;6.708;2023-01-28T03:04:47;15.80;;;9.30;;
11665;SDS011;5889;51.350;6.708;2023-01-28T03:07:19;14.60;;;9.10;;
11665;SDS011;5889;51.350;6.708;2023-01-28T03:09:49;19.27;;;11.27;;
11665;SDS011;5889;51.350;6.708;2023-01-28T03:12:18;35.90;;;12.73;;
11665;SDS011;5889;51.350;6.708;2023-01-28T03:15:09;20.53;;;10.97;;
11665;SDS011;5889;51.350;6.708;2023-01-28T03:17:59;14.10;;;9.37;;
11665;SDS011;5889;51.350;6.708;2023-01-28T03:20:47;13.53;;;9.43;;
11665;SDS011;5889;51.350;6.708;2023-01-28T03:23:38;13.17;;;9.20;;
11665;SDS011;5889;51.350;6.708;2023-01-28T03:26:30;12.30;;;8.73;;
11665;SDS011;5889;51.350;6.708;2023-01-28T03:29:18;11.93;;;8.23;;
11665;SDS011;5889;51.350;6.708;2023-01-28T03:32:06;12.10;;;8.53;;
11665;SDS011;5889;51.350;6.708;2023-01-28T03:34:51;11.10;;;8.43;;
11665;SDS011;5889;51.350;6.708;2023-01-28T03:37:36;10.30;;;7.63;;
11665;SDS011;5889;51.350;6.708;2023-01-28T03:40:04;12.83;;;8.27;;
11665;SDS011;5889;51.350;6.708;2023-01-28T03:42:32;11.13;;;7.93;;
11665;SDS011;5889;51.350;6.708;2023-01-28T03:44:59;10.83;;;8.10;;
11665;SDS011;5889;51.350;6.708;2023-01-28T03:47:30;10.67;;;7.70;;
11665;SDS011;5889;51.350;6.708;2023-01-28T03:49:58;11.23;;;8.13;;
11665;SDS011;5889;51.350;6.708;2023-01-28T03:52:26;9.73;;;8.03;;
11665;SDS011;5889;51.350;6.708;2023-01-28T03:54:55;9.07;;;7.77;;
11665;SDS011;5889;51.350;6.708;2023-01-28T03:57:22;11.53;;;8.57;;
11665;SDS011;5889;51.350;6.708;2023-01-28T03:59:51;10.40;;;8.53;;
11665;SDS011;5889;51.350;6.708;2023-01-28T04:02:18;13.77;;;8.47;;
11665;SDS011;5889;51.350;6.708;2023-01-28T04:04:48;11.23;;;8.97;;
11665;SDS011;5889;51.350;6.708;2023-01-28T04:07:15;13.63;;;8.70;;
11665;SDS011;5889;51.350;6.708;2023-01-28T04:09:42;11.83;;;8.70;;
11665;SDS011;5889;51.350;6.708;2023-01-28T04:12:10;12.37;;;9.43;;
11665;SDS011;5889;51.350;6.708;2023-01-28T04:14:37;10.77;;;8.63;;
11665;SDS011;5889;51.350;6.708;2023-01-28T04:17:05;12.33;;;8.63;;
11665;SDS011;5889;51.350;6.708;2023-01-28T04:19:35;9.60;;;8.47;;
11665;SDS011;5889;51.350;6.708;2023-01-28T04:22:07;13.13;;;9.00;;
11665;SDS011;5889;51.350;6.708;2023-01-28T04:24:36;12.60;;;9.47;;
11665;SDS011;5889;51.350;6.708;2023-01-28T04:27:03;13.27;;;10.13;;
11665;SDS011;5889;51.350;6.708;2023-01-28T04:29:30;13.67;;;10.63;;
11665;SDS011;5889;51.350;6.708;2023-01-28T04:31:57;12.37;;;9.50;;
11665;SDS011;5889;51.350;6.708;2023-01-28T04:34:24;11.23;;;9.23;;
11665;SDS011;5889;51.350;6.708;2023-01-28T04:36:50;11.90;;;9.43;;
11665;SDS011;5889;51.350;6.708;2023-01-28T04:39:19;14.07;;;10.27;;
11665;SDS011;5889;51.350;6.708;2023-01-28T04:41:46;14.23;;;10.87;;
11665;SDS011;5889;51.350;6.708;2023-01-28T04:44:12;13.37;;;9.20;;
11665;SDS011;5889;51.350;6.708;2023-01-28T04:46:41;13.23;;;9.83;;
11665;SDS011;5889;51.350;6.708;2023-01-28T04:49:08;12.90;;;10.23;;
11665;SDS011;5889;51.350;6.708;2023-01-28T04:51:35;13.97;;;10.13;;
11665;SDS011;5889;51.350;6.708;2023-01-28T04:54:01;17.13;;;11.27;;
11665;SDS011;5889;51.350;6.708;2023-01-28T04:56:30;14.60;;;10.03;;
11665;SDS011;5889;51.350;6.708;2023-01-28T04:58:57;13.70;;;10.23;;
11665;SDS011;5889;51.350;6.708;2023-01-28T05:01:24;13.90;;;10.17;;
11665;SDS011;5889;51.350;6.708;2023-01-28T05:03:51;13.90;;;10.03;;
11665;SDS011;5889;51.350;6.708;2023-01-28T05:06:18;14.93;;;10.40;;
11665;SDS011;5889;51.350;6.708;2023-01-28T05:08:45;15.27;;;10.63;;
11665;SDS011;5889;51.350;6.708;2023-01-28T05:11:12;13.97;;;10.77;;
11665;SDS011;5889;51.350;6.708;2023-01-28T05:13:40;16.30;;;10.63;;
11665;SDS011;5889;51.350;6.708;2023-01-28T05:16:07;15.73;;;10.97;;
11665;SDS011;5889;51.350;6.708;2023-01-28T05:18:34;13.87;;;10.00;;
11665;SDS011;5889;51.350;6.708;2023-01-28T05:21:01;15.27;;;10.47;;
11665;SDS011;5889;51.350;6.708;2023-01-28T05:23:28;14.73;;;11.00;;
11665;SDS011;5889;51.350;6.708;2023-01-28T05:25:55;15.10;;;10.87;;
11665;SDS011;5889;51.350;6.708;2023-01-28T05:28:21;18.67;;;13.43;;
11665;SDS011;5889;51.350;6.708;2023-01-28T05:30:50;14.53;;;10.87;;
11665;SDS011;5889;51.350;6.708;2023-01-28T05:33:17;18.97;;;11.63;;
11665;SDS011;5889;51.350;6.708;2023-01-28T05:35:43;16.23;;;10.63;;
11665;SDS011;5889;51.350;6.708;2023-01-28T05:38:10;16.00;;;10.33;;
11665;SDS011;5889;51.350;6.708;2023-01-28T05:40:37;16.67;;;11.93;;
11665;SDS011;5889;51.350;6.708;2023-01-28T05:43:04;16.37;;;11.90;;
11665;SDS011;5889;51.350;6.708;2023-01-28T05:45:31;16.70;;;11.40;;
11665;SDS011;5889;51.350;6.708;2023-01-28T05:47:59;15.97;;;11.40;;
11665;SDS011;5889;51.350;6.708;2023-01-28T05:50:26;16.00;;;10.60;;
11665;SDS011;5889;51.350;6.708;2023-01-28T05:52:53;17.10;;;12.30;;
11665;SDS011;5889;51.350;6.708;2023-01-28T05:55:20;16.30;;;11.10;;
11665;SDS011;5889;51.350;6.708;2023-01-28T05:57:47;17.67;;;11.57;;
11665;SDS011;5889;51.350;6.708;2023-01-28T06:00:14;19.60;;;12.40;;
11665;SDS011;5889;51.350;6.708;2023-01-28T06:02:41;18.60;;;13.70;;
11665;SDS011;5889;51.350;6.708;2023-01-28T06:05:10;19.63;;;12.00;;
11665;SDS011;5889;51.350;6.708;2023-01-28T06:07:37;16.83;;;11.70;;
11665;SDS011;5889;51.350;6.708;2023-01-28T06:10:04;17.03;;;11.13;;
11665;SDS011;5889;51.350;6.708;2023-01-28T06:12:32;15.50;;;11.17;;
11665;SDS011;5889;51.350;6.708;2023-01-28T06:14:59;16.27;;;10.97;;
11665;SDS011;5889;51.350;6.708;2023-01-28T06:17:25;18.33;;;11.10;;
11665;SDS011;5889;51.350;6.708;2023-01-28T06:19:52;19.33;;;11.23;;
11665;SDS011;5889;51.350;6.708;2023-01-28T06:22:21;16.57;;;11.60;;
11665;SDS011;5889;51.350;6.708;2023-01-28T06:24:48;15.63;;;11.80;;
11665;SDS011;5889;51.350;6.708;2023-01-28T06:27:14;19.60;;;12.00;;
11665;SDS011;5889;51.350;6.708;2023-01-28T06:29:41;17.73;;;12.47;;
11665;SDS011;5889;51.350;6.708;2023-01-28T06:32:08;18.03;;;11.77;;
11665;SDS011;5889;51.350;6.708;2023-01-28T06:34:35;18.03;;;12.30;;
11665;SDS011;5889;51.350;6.708;2023-01-28T06:37:02;17.27;;;12.23;;
11665;SDS011;5889;51.350;6.708;2023-01-28T06:39:30;18.83;;;11.77;;
11665;SDS011;5889;51.350;6.708;2023-01-28T06:41:57;20.13;;;12.87;;
11665;SDS011;5889;51.350;6.708;2023-01-28T06:44:25;17.50;;;12.87;;
11665;SDS011;5889;51.350;6.708;2023-01-28T06:46:51;16.67;;;12.60;;
11665;SDS011;5889;51.350;6.708;2023-01-28T06:49:18;21.37;;;12.83;;
11665;SDS011;5889;51.350;6.708;2023-01-28T06:51:46;19.67;;;13.40;;
11665;SDS011;5889;51.350;6.708;2023-01-28T06:54:13;20.33;;;12.97;;
11665;SDS011;5889;51.350;6.708;2023-01-28T06:56:41;19.30;;;11.67;;
11665;SDS011;5889;51.350;6.708;2023-01-28T06:59:08;19.00;;;12.63;;
11665;SDS011;5889;51.350;6.708;2023-01-28T07:01:35;19.73;;;11.97;;
11665;SDS011;5889;51.350;6.708;2023-01-28T07:04:02;19.00;;;12.63;;
11665;SDS011;5889;51.350;6.708;2023-01-28T07:06:29;21.77;;;13.47;;
11665;SDS011;5889;51.350;6.708;2023-01-28T07:08:56;16.83;;;12.40;;
11665;SDS011;5889;51.350;6.708;2023-01-28T07:11:23;17.07;;;12.27;;
11665;SDS011;5889;51.350;6.708;2023-01-28T07:13:51;19.17;;;12.47;;
11665;SDS011;5889;51.350;6.708;2023-01-28T07:16:18;19.73;;;13.17;;
11665;SDS011;5889;51.350;6.708;2023-01-28T07:18:46;21.37;;;14.17;;
11665;SDS011;5889;51.350;6.708;2023-01-28T07:21:12;19.50;;;12.77;;
11665;SDS011;5889;51.350;6.708;2023-01-28T07:23:39;19.27;;;13.10;;
11665;SDS011;5889;51.350;6.708;2023-01-28T07:26:06;19.70;;;13.90;;
11665;SDS011;5889;51.350;6.708;2023-01-28T07:28:33;18.70;;;12.33;;
11665;SDS011;5889;51.350;6.708;2023-01-28T07:31:02;18.87;;;13.30;;
11665;SDS011;5889;51.350;6.708;2023-01-28T07:33:29;18.40;;;12.53;;
11665;SDS011;5889;51.350;6.708;2023-01-28T07:35:56;19.10;;;13.23;;
11665;SDS011;5889;51.350;6.708;2023-01-28T07:38:23;17.63;;;12.53;;
11665;SDS011;5889;51.350;6.708;2023-01-28T07:40:50;20.63;;;13.73;;
11665;SDS011;5889;51.350;6.708;2023-01-28T07:43:16;21.17;;;12.67;;
11665;SDS011;5889;51.350;6.708;2023-01-28T07:45:43;18.37;;;12.73;;
11665;SDS011;5889;51.350;6.708;2023-01-28T07:48:12;22.10;;;14.23;;
11665;SDS011;5889;51.350;6.708;2023-01-28T07:50:39;20.47;;;13.20;;
11665;SDS011;5889;51.350;6.708;2023-01-28T07:53:07;25.37;;;13.70;;
11665;SDS011;5889;51.350;6.708;2023-01-28T07:55:35;20.47;;;13.70;;
11665;SDS011;5889;51.350;6.708;2023-01-28T07:58:03;19.00;;;13.03;;
11665;SDS011;5889;51.350;6.708;2023-01-28T08:00:31;22.23;;;13.83;;
11665;SDS011;5889;51.350;6.708;2023-01-28T08:03:00;21.80;;;13.73;;
11665;SDS011;5889;51.350;6.708;2023-01-28T08:05:31;20.83;;;13.63;;
11665;SDS011;5889;51.350;6.708;2023-01-28T08:08:05;18.50;;;13.13;;
11665;SDS011;5889;51.350;6.708;2023-01-28T08:10:32;19.40;;;13.37;;
11665;SDS011;5889;51.350;6.708;2023-01-28T08:12:59;20.40;;;14.10;;
11665;SDS011;5889;51.350;6.708;2023-01-28T08:15:27;20.20;;;14.87;;
11665;SDS011;5889;51.350;6.708;2023-01-28T08:17:54;22.77;;;14.80;;
11665;SDS011;5889;51.350;6.708;2023-01-28T08:20:22;21.97;;;14.10;;
11665;SDS011;5889;51.350;6.708;2023-01-28T08:22:51;22.13;;;13.63;;
11665;SDS011;5889;51.350;6.708;2023-01-28T08:25:19;22.67;;;15.23;;
11665;SDS011;5889;51.350;6.708;2023-01-28T08:27:47;21.63;;;14.33;;
11665;SDS011;5889;51.350;6.708;2023-01-28T08:30:14;21.93;;;14.30;;
11665;SDS011;5889;51.350;6.708;2023-01-28T08:32:41;25.17;;;16.00;;
11665;SDS011;5889;51.350;6.708;2023-01-28T08:35:08;21.00;;;14.07;;
11665;SDS011;5889;51.350;6.708;2023-01-28T08:37:34;22.07;;;15.07;;
11665;SDS011;5889;51.350;6.708;2023-01-28T08:40:03;21.90;;;14.33;;
11665;SDS011;5889;51.350;6.708;2023-01-28T08:42:31;25.13;;;16.47;;
11665;SDS011;5889;51.350;6.708;2023-01-28T08:44:58;22.10;;;15.13;;
11665;SDS011;5889;51.350;6.708;2023-01-28T08:47:25;23.37;;;14.80;;
11665;SDS011;5889;51.350;6.708;2023-01-28T08:49:52;22.23;;;14.23;;
11665;SDS011;5889;51.350;6.708;2023-01-28T08:52:19;20.97;;;14.27;;
11665;SDS011;5889;51.350;6.708;2023-01-28T08:54:46;27.90;;;15.63;;
11665;SDS011;5889;51.350;6.708;2023-01-28T08:57:14;24.30;;;16.60;;
11665;SDS011;5889;51.350;6.708;2023-01-28T08:59:41;30.47;;;17.83;;
11665;SDS011;5889;51.350;6.708;2023-01-28T09:02:11;35.37;;;20.67;;
11665;SDS011;5889;51.350;6.708;2023-01-28T09:04:39;36.23;;;22.97;;
11665;SDS011;5889;51.350;6.708;2023-01-28T09:07:07;34.20;;;20.73;;
11665;SDS011;5889;51.350;6.708;2023-01-28T09:09:34;31.57;;;15.70;;
11665;SDS011;5889;51.350;6.708;2023-01-28T09:12:01;38.07;;;20.40;;
11665;SDS011;5889;51.350;6.708;2023-01-28T09:14:29;28.03;;;18.70;;
11665;SDS011;5889;51.350;6.708;2023-01-28T09:16:56;27.40;;;17.47;;
11665;SDS011;5889;51.350;6.708;2023-01-28T09:19:23;28.93;;;17.83;;
11665;SDS011;5889;51.350;6.708;2023-01-28T09:21:50;30.57;;;20.47;;
11665;SDS011;5889;51.350;6.708;2023-01-28T09:24:17;34.03;;;19.93;;
11665;SDS011;5889;51.350;6.708;2023-01-28T09:26:44;29.87;;;17.73;;
11665;SDS011;5889;51.350;6.708;2023-01-28T09:29:13;29.40;;;15.60;;
11665;SDS011;5889;51.350;6.708;2023-01-28T09:31:41;28.73;;;18.70;;
11665;SDS011;5889;51.350;6.708;2023-01-28T09:34:08;33.43;;;21.00;;
11665;SDS011;5889;51.350;6.708;2023-01-28T09:36:35;29.67;;;19.27;;
11665;SDS011;5889;51.350;6.708;2023-01-28T09:39:02;29.10;;;20.13;;
11665;SDS011;5889;51.350;6.708;2023-01-28T09:41:32;27.83;;;18.17;;
11665;SDS011;5889;51.350;6.708;2023-01-28T09:44:19;26.97;;;16.70;;
11665;SDS011;5889;51.350;6.708;2023-01-28T09:47:00;33.53;;;19.30;;
11665;SDS011;5889;51.350;6.708;2023-01-28T09:49:31;33.03;;;16.63;;
11665;SDS011;5889;51.350;6.708;2023-01-28T09:52:02;35.23;;;17.10;;
11665;SDS011;5889;51.350;6.708;2023-01-28T09:54:32;33.70;;;22.10;;
11665;SDS011;5889;51.350;6.708;2023-01-28T09:57:06;38.83;;;20.67;;
11665;SDS011;5889;51.350;6.708;2023-01-28T09:59:38;34.90;;;18.70;;
11665;SDS011;5889;51.350;6.708;2023-01-28T10:02:15;42.40;;;20.67;;
11665;SDS011;5889;51.350;6.708;2023-01-28T10:05:02;42.10;;;21.00;;
11665;SDS011;5889;51.350;6.708;2023-01-28T10:07:43;38.87;;;20.90;;
11665;SDS011;5889;51.350;6.708;2023-01-28T10:10:18;43.30;;;25.17;;
11665;SDS011;5889;51.350;6.708;2023-01-28T10:13:01;39.30;;;24.77;;
11665;SDS011;5889;51.350;6.708;2023-01-28T10:15:46;40.70;;;20.93;;
11665;SDS011;5889;51.350;6.708;2023-01-28T10:18:26;35.97;;;20.63;;
11665;SDS011;5889;51.350;6.708;2023-01-28T10:21:00;35.23;;;20.37;;
11665;SDS011;5889;51.350;6.708;2023-01-28T10:23:35;39.13;;;20.33;;
11665;SDS011;5889;51.350;6.708;2023-01-28T10:26:15;37.10;;;21.57;;
11665;SDS011;5889;51.350;6.708;2023-01-28T10:28:50;38.57;;;22.57;;
11665;SDS011;5889;51.350;6.708;2023-01-28T10:31:21;41.77;;;22.87;;
11665;SDS011;5889;51.350;6.708;2023-01-28T10:33:50;36.87;;;22.00;;
11665;SDS011;5889;51.350;6.708;2023-01-28T10:36:17;40.17;;;22.57;;
11665;SDS011;5889;51.350;6.708;2023-01-28T10:38:44;39.53;;;19.67;;
11665;SDS011;5889;51.350;6.708;2023-01-28T10:41:12;36.77;;;20.97;;
11665;SDS011;5889;51.350;6.708;2023-01-28T10:43:45;40.33;;;20.93;;
11665;SDS011;5889;51.350;6.708;2023-01-28T10:46:15;43.50;;;23.57;;
11665;SDS011;5889;51.350;6.708;2023-01-28T10:48:45;41.57;;;24.33;;
11665;SDS011;5889;51.350;6.708;2023-01-28T10:51:28;39.80;;;22.63;;
11665;SDS011;5889;51.350;6.708;2023-01-28T10:53:56;44.10;;;23.43;;
11665;SDS011;5889;51.350;6.708;2023-01-28T10:56:24;37.83;;;21.60;;
11665;SDS011;5889;51.350;6.708;2023-01-28T10:58:56;41.30;;;20.77;;
11665;SDS011;5889;51.350;6.708;2023-01-28T11:01:37;37.70;;;22.17;;
11665;SDS011;5889;51.350;6.708;2023-01-28T11:04:05;41.00;;;23.50;;
11665;SDS011;5889;51.350;6.708;2023-01-28T11:06:46;40.87;;;22.70;;
11665;SDS011;5889;51.350;6.708;2023-01-28T11:09:22;47.60;;;26.97;;
11665;SDS011;5889;51.350;6.708;2023-01-28T11:11:50;45.93;;;24.83;;
11665;SDS011;5889;51.350;6.708;2023-01-28T11:14:21;36.10;;;18.17;;
11665;SDS011;5889;51.350;6.708;2023-01-28T11:16:49;33.10;;;18.90;;
11665;SDS011;5889;51.350;6.708;2023-01-28T11:19:18;42.67;;;23.73;;
11665;SDS011;5889;51.350;6.708;2023-01-28T11:21:49;43.00;;;21.73;;
11665;SDS011;5889;51.350;6.708;2023-01-28T11:24:20;49.23;;;24.10;;
11665;SDS011;5889;51.350;6.708;2023-01-28T11:26:51;37.67;;;22.67;;
11665;SDS011;5889;51.350;6.708;2023-01-28T11:29:21;30.83;;;17.30;;
11665;SDS011;5889;51.350;6.708;2023-01-28T11:31:50;31.43;;;18.20;;
11665;SDS011;5889;51.350;6.708;2023-01-28T11:34:18;32.03;;;17.90;;
11665;SDS011;5889;51.350;6.708;2023-01-28T11:36:50;32.80;;;17.57;;
11665;SDS011;5889;51.350;6.708;2023-01-28T11:39:19;38.07;;;19.90;;
11665;SDS011;5889;51.350;6.708;2023-01-28T11:41:50;30.87;;;17.97;;
11665;SDS011;5889;51.350;6.708;2023-01-28T11:44:18;28.37;;;17.87;;
11665;SDS011;5889;51.350;6.708;2023-01-28T11:46:53;28.67;;;17.07;;
11665;SDS011;5889;51.350;6.708;2023-01-28T11:49:54;29.33;;;15.77;;
11665;SDS011;5889;51.350;6.708;2023-01-28T11:52:35;31.93;;;18.67;;
11665;SDS011;5889;51.350;6.708;2023-01-28T11:55:19;35.03;;;22.20;;
11665;SDS011;5889;51.350;6.708;2023-01-28T11:57:54;26.17;;;16.00;;
11665;SDS011;5889;51.350;6.708;2023-01-28T12:00:31;24.13;;;15.07;;
11665;SDS011;5889;51.350;6.708;2023-01-28T12:03:12;23.93;;;14.53;;
11665;SDS011;5889;51.350;6.708;2023-01-28T12:05:56;25.60;;;15.20;;
11665;SDS011;5889;51.350;6.708;2023-01-28T12:08:33;26.67;;;15.63;;
11665;SDS011;5889;51.350;6.708;2023-01-28T12:11:17;25.93;;;15.30;;
11665;SDS011;5889;51.350;6.708;2023-01-28T12:14:12;31.40;;;18.37;;
11665;SDS011;5889;51.350;6.708;2023-01-28T12:16:54;38.83;;;22.50;;
11665;SDS011;5889;51.350;6.708;2023-01-28T12:19:42;41.70;;;23.60;;
11665;SDS011;5889;51.350;6.708;2023-01-28T12:22:21;38.07;;;21.33;;
11665;SDS011;5889;51.350;6.708;2023-01-28T12:25:14;32.87;;;18.27;;
11665;SDS011;5889;51.350;6.708;2023-01-28T12:27:49;26.47;;;16.30;;
11665;SDS011;5889;51.350;6.708;2023-01-28T12:30:26;22.97;;;15.13;;
11665;SDS011;5889;51.350;6.708;2023-01-28T12:36:06;27.80;;;15.13;;
11665;SDS011;5889;51.350;6.708;2023-01-28T12:38:47;27.03;;;15.43;;
11665;SDS011;5889;51.350;6.708;2023-01-28T12:41:21;24.30;;;14.47;;
11665;SDS011;5889;51.350;6.708;2023-01-28T12:43:53;25.50;;;14.37;;
11665;SDS011;5889;51.350;6.708;2023-01-28T12:46:25;23.83;;;14.87;;
11665;SDS011;5889;51.350;6.708;2023-01-28T12:49:02;23.60;;;14.40;;
11665;SDS011;5889;51.350;6.708;2023-01-28T12:51:33;23.53;;;14.10;;
11665;SDS011;5889;51.350;6.708;2023-01-28T12:54:10;24.73;;;14.47;;
11665;SDS011;5889;51.350;6.708;2023-01-28T12:56:44;23.27;;;14.43;;
11665;SDS011;5889;51.350;6.708;2023-01-28T12:59:15;22.07;;;14.60;;
11665;SDS011;5889;51.350;6.708;2023-01-28T13:01:48;23.67;;;15.47;;
11665;SDS011;5889;51.350;6.708;2023-01-28T13:04:24;26.07;;;15.43;;
11665;SDS011;5889;51.350;6.708;2023-01-28T13:07:01;24.03;;;15.40;;
11665;SDS011;5889;51.350;6.708;2023-01-28T13:09:32;22.97;;;15.50;;
11665;SDS011;5889;51.350;6.708;2023-01-28T13:12:04;23.93;;;15.50;;
11665;SDS011;5889;51.350;6.708;2023-01-28T13:14:32;23.63;;;14.77;;
11665;SDS011;5889;51.350;6.708;2023-01-28T13:17:09;24.43;;;16.13;;
11665;SDS011;5889;51.350;6.708;2023-01-28T13:19:38;24.87;;;16.63;;
11665;SDS011;5889;51.350;6.708;2023-01-28T13:22:10;23.67;;;16.70;;
11665;SDS011;5889;51.350;6.708;2023-01-28T13:24:50;28.17;;;16.67;;
11665;SDS011;5889;51.350;6.708;2023-01-28T13:27:22;22.07;;;15.70;;
11665;SDS011;5889;51.350;6.708;2023-01-28T13:29:59;22.07;;;15.27;;
11665;SDS011;5889;51.350;6.708;2023-01-28T13:32:29;23.80;;;15.87;;
11665;SDS011;5889;51.350;6.708;2023-01-28T13:34:58;22.03;;;15.60;;
11665;SDS011;5889;51.350;6.708;2023-01-28T13:37:28;24.83;;;16.53;;
11665;SDS011;5889;51.350;6.708;2023-01-28T13:39:59;25.63;;;16.90;;
11665;SDS011;5889;51.350;6.708;2023-01-28T13:42:32;24.70;;;16.07;;
11665;SDS011;5889;51.350;6.708;2023-01-28T13:45:19;23.40;;;16.60;;
11665;SDS011;5889;51.350;6.708;2023-01-28T13:47:48;24.67;;;17.13;;
11665;SDS011;5889;51.350;6.708;2023-01-28T13:50:19;23.03;;;15.87;;
11665;SDS011;5889;51.350;6.708;2023-01-28T13:52:49;28.20;;;17.17;;
11665;SDS011;5889;51.350;6.708;2023-01-28T13:55:20;25.77;;;17.13;;
11665;SDS011;5889;51.350;6.708;2023-01-28T14:01:08;21.47;;;14.97;;
11665;SDS011;5889;51.350;6.708;2023-01-28T14:12:50;28.53;;;18.07;;
11665;SDS011;5889;51.350;6.708;2023-01-28T14:15:49;28.97;;;16.23;;
11665;SDS011;5889;51.350;6.708;2023-01-28T14:18:30;28.63;;;16.67;;
11665;SDS011;5889;51.350;6.708;2023-01-28T14:21:02;28.57;;;17.47;;
11665;SDS011;5889;51.350;6.708;2023-01-28T14:23:36;28.37;;;17.47;;
11665;SDS011;5889;51.350;6.708;2023-01-28T14:26:15;29.93;;;18.20;;
11665;SDS011;5889;51.350;6.708;2023-01-28T14:28:53;32.30;;;18.13;;
11665;SDS011;5889;51.350;6.708;2023-01-28T14:31:30;29.10;;;16.83;;
11665;SDS011;5889;51.350;6.708;2023-01-28T14:34:03;29.57;;;15.63;;
11665;SDS011;5889;51.350;6.708;2023-01-28T14:36:35;28.30;;;16.80;;
11665;SDS011;5889;51.350;6.708;2023-01-28T14:39:04;26.17;;;16.73;;
11665;SDS011;5889;51.350;6.708;2023-01-28T14:41:36;26.57;;;17.10;;
11665;SDS011;5889;51.350;6.708;2023-01-28T14:44:05;32.67;;;18.10;;
11665;SDS011;5889;51.350;6.708;2023-01-28T14:46:34;28.70;;;17.10;;
11665;SDS011;5889;51.350;6.708;2023-01-28T14:49:22;26.60;;;16.93;;
11665;SDS011;5889;51.350;6.708;2023-01-28T14:52:13;33.60;;;16.87;;
11665;SDS011;5889;51.350;6.708;2023-01-28T14:54:53;25.13;;;16.30;;
11665;SDS011;5889;51.350;6.708;2023-01-28T14:57:36;27.67;;;16.23;;
11665;SDS011;5889;51.350;6.708;2023-01-28T15:00:17;24.33;;;16.00;;
11665;SDS011;5889;51.350;6.708;2023-01-28T15:02:45;23.33;;;16.60;;
11665;SDS011;5889;51.350;6.708;2023-01-28T15:05:16;27.37;;;17.23;;
11665;SDS011;5889;51.350;6.708;2023-01-28T15:07:45;27.40;;;16.57;;
11665;SDS011;5889;51.350;6.708;2023-01-28T15:10:14;23.93;;;17.00;;
11665;SDS011;5889;51.350;6.708;2023-01-28T15:12:44;26.83;;;16.80;;
11665;SDS011;5889;51.350;6.708;2023-01-28T15:15:15;28.40;;;17.67;;
11665;SDS011;5889;51.350;6.708;2023-01-28T15:17:45;27.90;;;17.63;;